createdAt,value
2017-10-20T00:01:57.323Z,11.46
2017-10-20T00:04:24.815Z,11.44
2017-10-20T00:06:52.404Z,11.40
2017-10-20T00:09:19.905Z,11.38
2017-10-20T00:11:47.407Z,11.37
2017-10-20T00:14:14.935Z,11.35
2017-10-20T00:16:42.426Z,11.32
2017-10-20T00:19:09.924Z,11.34
2017-10-20T00:21:37.514Z,11.32
2017-10-20T00:24:05.020Z,11.29
2017-10-20T00:26:32.513Z,11.27
2017-10-20T00:29:00.067Z,11.25
2017-10-20T00:31:27.556Z,11.24
2017-10-20T00:33:55.054Z,11.24
2017-10-20T00:36:22.571Z,11.21
2017-10-20T00:38:50.063Z,11.19
2017-10-20T00:41:17.628Z,11.16
2017-10-20T00:43:45.180Z,11.14
2017-10-20T00:46:12.677Z,11.13
2017-10-20T00:48:40.180Z,11.12
2017-10-20T00:51:07.718Z,11.09
2017-10-20T00:53:35.218Z,11.05
2017-10-20T00:56:02.717Z,11.05
2017-10-20T00:58:30.283Z,11.04
2017-10-20T01:00:57.810Z,11.00
2017-10-20T01:03:25.349Z,10.99
2017-10-20T01:05:52.875Z,10.98
2017-10-20T01:08:20.467Z,11.00
2017-10-20T01:10:47.963Z,10.98
2017-10-20T01:13:15.505Z,10.97
2017-10-20T01:15:43.012Z,10.94
2017-10-20T01:18:10.507Z,10.93
2017-10-20T01:20:38.036Z,10.89
2017-10-20T01:23:05.533Z,10.89
2017-10-20T01:25:33.023Z,10.88
2017-10-20T01:28:00.735Z,10.86
2017-10-20T01:30:28.305Z,10.84
2017-10-20T01:32:55.796Z,10.82
2017-10-20T01:35:23.320Z,10.80
2017-10-20T01:37:50.875Z,10.80
2017-10-20T01:40:18.376Z,10.76
2017-10-20T01:42:45.936Z,10.74
2017-10-20T01:45:13.432Z,10.74
2017-10-20T01:47:40.991Z,10.73
2017-10-20T01:50:08.658Z,10.74
2017-10-20T01:52:36.148Z,10.71
2017-10-20T01:55:03.639Z,10.70
2017-10-20T01:57:31.204Z,10.69
2017-10-20T01:59:58.693Z,10.68
2017-10-20T02:02:26.179Z,10.68
2017-10-20T02:04:53.908Z,10.68
2017-10-20T02:07:21.396Z,10.68
2017-10-20T02:09:48.884Z,10.67
2017-10-20T02:12:16.421Z,10.66
2017-10-20T02:14:43.929Z,10.68
2017-10-20T02:17:11.420Z,10.68
2017-10-20T02:19:38.939Z,10.66
2017-10-20T02:22:06.429Z,10.62
2017-10-20T02:24:33.925Z,10.61
2017-10-20T02:27:01.543Z,10.59
2017-10-20T02:29:29.036Z,10.55
2017-10-20T02:31:56.523Z,10.54
2017-10-20T02:34:24.123Z,10.53
2017-10-20T02:36:51.612Z,10.49
2017-10-20T02:39:19.110Z,10.46
2017-10-20T02:41:46.620Z,10.44
2017-10-20T02:44:14.110Z,10.43
2017-10-20T02:46:41.655Z,10.41
2017-10-20T02:49:09.148Z,10.36
2017-10-20T02:51:36.726Z,10.33
2017-10-20T02:54:04.241Z,10.32
2017-10-20T02:56:31.757Z,10.30
2017-10-20T02:58:59.291Z,10.30
2017-10-20T03:01:26.780Z,10.26
2017-10-20T03:03:54.272Z,10.26
2017-10-20T03:06:21.788Z,10.23
2017-10-20T03:08:49.283Z,10.24
2017-10-20T03:11:16.800Z,10.24
2017-10-20T03:13:44.313Z,10.20
2017-10-20T03:16:11.916Z,10.18
2017-10-20T03:18:39.457Z,10.18
2017-10-20T03:21:06.947Z,10.14
2017-10-20T03:23:34.438Z,10.13
2017-10-20T03:26:01.968Z,10.10
2017-10-20T03:28:29.503Z,10.08
2017-10-20T03:30:57.001Z,10.07
2017-10-20T03:33:24.511Z,10.07
2017-10-20T03:35:51.997Z,10.08
2017-10-20T03:38:19.635Z,10.07
2017-10-20T03:40:47.223Z,10.05
2017-10-20T03:43:14.755Z,10.05
2017-10-20T03:45:42.279Z,10.06
2017-10-20T03:48:09.798Z,10.06
2017-10-20T03:50:37.283Z,10.03
2017-10-20T03:53:04.997Z,10.00
2017-10-20T03:55:32.485Z,9.99
2017-10-20T03:57:59.966Z,9.98
2017-10-20T04:00:27.491Z,9.97
2017-10-20T04:02:55.032Z,9.96
2017-10-20T04:05:22.520Z,9.94
2017-10-20T04:07:50.058Z,9.91
2017-10-20T04:10:17.546Z,9.92
2017-10-20T04:12:45.036Z,9.92
2017-10-20T04:15:12.559Z,9.93
2017-10-20T04:17:40.052Z,9.91
2017-10-20T04:20:07.553Z,9.91
2017-10-20T04:22:35.076Z,9.94
2017-10-20T04:25:02.555Z,9.89
2017-10-20T04:27:30.048Z,9.88
2017-10-20T04:29:57.574Z,9.89
2017-10-20T04:32:25.056Z,9.89
2017-10-20T04:34:52.544Z,9.86
2017-10-20T04:37:20.067Z,9.84
2017-10-20T04:39:47.556Z,9.82
2017-10-20T04:42:15.064Z,9.82
2017-10-20T04:44:42.588Z,9.76
2017-10-20T04:47:10.079Z,9.75
2017-10-20T04:49:37.568Z,9.73
2017-10-20T04:52:05.093Z,9.74
2017-10-20T04:54:32.584Z,9.74
2017-10-20T04:57:00.068Z,9.72
2017-10-20T04:59:27.591Z,9.69
2017-10-20T05:01:55.126Z,9.69
2017-10-20T05:04:22.682Z,9.72
2017-10-20T05:06:50.172Z,9.75
2017-10-20T05:09:17.696Z,9.74
2017-10-20T05:11:45.189Z,9.74
2017-10-20T05:14:12.716Z,9.76
2017-10-20T05:16:40.384Z,9.76
2017-10-20T05:19:07.872Z,9.80
2017-10-20T05:21:35.359Z,9.84
2017-10-20T05:24:02.885Z,9.91
2017-10-20T05:26:30.374Z,9.99
2017-10-20T05:28:57.866Z,10.06
2017-10-20T05:31:25.427Z,10.12
2017-10-20T05:33:52.923Z,10.10
2017-10-20T05:36:20.449Z,10.11
2017-10-20T05:38:47.978Z,10.10
2017-10-20T05:41:15.476Z,10.13
2017-10-20T05:43:42.967Z,10.06
2017-10-20T05:46:10.512Z,10.05
2017-10-20T05:48:37.999Z,10.03
2017-10-20T05:51:05.488Z,10.03
2017-10-20T05:53:33.015Z,10.05
2017-10-20T05:56:00.498Z,10.03
2017-10-20T05:58:27.988Z,10.06
2017-10-20T06:00:55.543Z,10.06
2017-10-20T06:03:23.040Z,10.00
2017-10-20T06:05:50.529Z,9.97
2017-10-20T06:08:18.060Z,9.94
2017-10-20T06:10:45.655Z,9.93
2017-10-20T06:13:13.141Z,9.90
2017-10-20T06:15:40.775Z,9.92
2017-10-20T06:18:08.260Z,9.95
2017-10-20T06:20:35.748Z,9.95
2017-10-20T06:23:03.256Z,9.94
2017-10-20T06:25:30.801Z,9.95
2017-10-20T06:27:58.376Z,9.96
2017-10-20T06:30:25.865Z,9.97
2017-10-20T06:32:53.380Z,9.96
2017-10-20T06:35:20.869Z,9.98
2017-10-20T06:37:48.362Z,10.03
2017-10-20T06:40:15.958Z,10.06
2017-10-20T06:42:43.530Z,10.16
2017-10-20T06:45:11.019Z,10.25
2017-10-20T06:47:38.635Z,10.34
2017-10-20T06:50:06.125Z,10.43
2017-10-20T06:52:33.613Z,10.52
2017-10-20T06:55:01.162Z,10.55
2017-10-20T06:57:28.658Z,10.59
2017-10-20T06:59:56.231Z,10.68
2017-10-20T07:02:23.767Z,10.70
2017-10-20T07:04:51.360Z,10.74
2017-10-20T07:07:18.911Z,10.83
2017-10-20T07:09:46.590Z,10.86
2017-10-20T07:12:14.084Z,10.86
2017-10-20T07:14:41.697Z,10.93
2017-10-20T07:17:09.232Z,10.96
2017-10-20T07:19:41.103Z,11.02
2017-10-20T07:22:08.772Z,11.12
2017-10-20T07:24:36.323Z,11.22
2017-10-20T07:27:03.818Z,11.32
2017-10-20T07:29:31.367Z,11.37
2017-10-20T07:31:58.860Z,11.45
2017-10-20T07:34:26.350Z,11.49
2017-10-20T07:36:53.883Z,11.49
2017-10-20T07:39:21.372Z,11.58
2017-10-20T07:41:48.863Z,11.64
2017-10-20T07:44:16.620Z,11.71
2017-10-20T07:46:44.111Z,11.77
2017-10-20T07:49:11.603Z,11.86
2017-10-20T07:51:39.324Z,11.97
2017-10-20T07:54:06.818Z,12.02
2017-10-20T07:56:34.395Z,12.07
2017-10-20T07:59:02.057Z,12.05
2017-10-20T08:01:29.624Z,12.08
2017-10-20T08:03:57.118Z,12.18
2017-10-20T08:06:24.661Z,12.36
2017-10-20T08:08:52.148Z,12.47
2017-10-20T08:11:19.639Z,12.51
2017-10-20T08:13:47.212Z,12.65
2017-10-20T08:16:14.712Z,12.80
2017-10-20T08:18:42.245Z,12.92
2017-10-20T08:21:09.884Z,13.00
2017-10-20T08:23:37.378Z,13.09
2017-10-20T08:26:04.872Z,13.19
2017-10-20T08:28:32.420Z,13.29
2017-10-20T08:30:59.913Z,13.44
2017-10-20T08:33:27.415Z,13.55
2017-10-20T08:35:55.149Z,13.62
2017-10-20T08:38:22.705Z,13.68
2017-10-20T08:40:50.199Z,13.67
2017-10-20T08:43:17.761Z,13.67
2017-10-20T08:45:45.254Z,13.78
2017-10-20T08:48:12.838Z,13.87
2017-10-20T08:50:40.395Z,14.01
2017-10-20T08:53:07.885Z,14.09
2017-10-20T08:55:35.381Z,14.21
2017-10-20T08:58:02.921Z,14.36
2017-10-20T09:00:30.403Z,14.39
2017-10-20T09:02:57.898Z,14.46
2017-10-20T09:05:25.430Z,14.54
2017-10-20T09:07:52.923Z,14.59
2017-10-20T09:10:20.426Z,14.62
2017-10-20T09:12:48.140Z,14.74
2017-10-20T09:15:15.640Z,14.87
2017-10-20T09:17:43.136Z,14.99
2017-10-20T09:20:10.801Z,15.02
2017-10-20T09:22:38.300Z,15.01
2017-10-20T09:25:05.804Z,15.05
2017-10-20T09:27:33.348Z,15.16
2017-10-20T09:30:00.840Z,15.13
2017-10-20T09:32:28.337Z,15.12
2017-10-20T09:34:55.859Z,15.07
2017-10-20T09:37:23.356Z,15.20
2017-10-20T09:39:50.909Z,15.21
2017-10-20T09:42:18.411Z,15.13
2017-10-20T09:44:45.968Z,15.12
2017-10-20T09:47:13.497Z,15.30
2017-10-20T09:49:40.996Z,15.32
2017-10-20T09:52:08.491Z,15.45
2017-10-20T09:54:36.124Z,15.51
2017-10-20T09:57:03.622Z,15.57
2017-10-20T09:59:31.136Z,15.60
2017-10-20T10:01:58.658Z,15.68
2017-10-20T10:04:26.151Z,15.80
2017-10-20T10:06:53.709Z,16.05
2017-10-20T10:09:21.257Z,16.20
2017-10-20T10:11:48.747Z,16.24
2017-10-20T10:14:16.294Z,16.34
2017-10-20T10:16:43.833Z,16.58
2017-10-20T10:19:11.404Z,16.64
2017-10-20T10:21:38.907Z,16.79
2017-10-20T10:24:06.624Z,16.94
2017-10-20T10:26:34.124Z,17.12
2017-10-20T10:29:01.665Z,17.03
2017-10-20T10:31:29.191Z,16.96
2017-10-20T10:33:56.733Z,16.92
2017-10-20T10:36:24.264Z,17.04
2017-10-20T10:38:51.780Z,17.01
2017-10-20T10:41:19.339Z,17.14
2017-10-20T10:43:46.845Z,17.15
2017-10-20T10:46:14.360Z,17.01
2017-10-20T10:48:41.918Z,17.01
2017-10-20T10:51:09.405Z,17.06
2017-10-20T10:53:36.896Z,17.29
2017-10-20T10:56:04.414Z,17.56
2017-10-20T10:58:31.904Z,17.67
2017-10-20T11:00:59.438Z,17.61
2017-10-20T11:03:26.933Z,17.43
2017-10-20T11:06:06.556Z,17.11
2017-10-20T11:11:47.697Z,16.97
2017-10-20T11:14:15.184Z,16.93
2017-10-20T11:16:42.696Z,16.88
2017-10-20T11:19:10.247Z,16.79
2017-10-20T11:21:37.735Z,16.81
2017-10-20T11:24:05.237Z,16.86
2017-10-20T11:26:32.776Z,16.93
2017-10-20T11:29:00.267Z,16.92
2017-10-20T11:31:27.784Z,16.99
2017-10-20T11:33:55.306Z,17.08
2017-10-20T11:36:22.805Z,17.21
2017-10-20T11:38:50.343Z,17.26
2017-10-20T11:41:17.902Z,17.37
2017-10-20T11:43:45.396Z,17.32
2017-10-20T11:46:13.144Z,17.30
2017-10-20T11:48:40.662Z,17.19
2017-10-20T11:51:08.151Z,17.15
2017-10-20T11:53:35.708Z,17.11
2017-10-20T11:56:03.201Z,17.12
2017-10-20T11:58:30.696Z,17.03
2017-10-20T12:00:58.221Z,16.99
2017-10-20T12:03:25.708Z,17.02
2017-10-20T12:05:53.204Z,16.96
2017-10-20T12:08:20.760Z,16.95
2017-10-20T12:10:48.249Z,16.87
2017-10-20T12:13:15.744Z,16.83
2017-10-20T12:15:43.296Z,16.78
2017-10-20T12:18:10.797Z,16.75
2017-10-20T12:20:38.303Z,16.73
2017-10-20T12:23:05.848Z,16.72
2017-10-20T12:25:33.341Z,16.75
2017-10-20T12:28:00.880Z,16.82
2017-10-20T12:30:28.378Z,16.84
2017-10-20T12:32:55.899Z,16.83
2017-10-20T12:35:23.430Z,16.83
2017-10-20T12:37:50.944Z,16.83
2017-10-20T12:40:18.435Z,16.83
2017-10-20T12:42:45.963Z,16.81
2017-10-20T12:45:13.657Z,16.80
2017-10-20T12:47:41.157Z,16.78
2017-10-20T12:50:08.749Z,16.77
2017-10-20T12:52:36.243Z,16.79
2017-10-20T12:55:03.788Z,16.78
2017-10-20T12:57:31.344Z,16.79
2017-10-20T12:59:58.836Z,16.78
2017-10-20T13:02:26.334Z,16.75
2017-10-20T13:04:53.857Z,16.76
2017-10-20T13:07:21.351Z,16.71
2017-10-20T13:09:48.910Z,16.62
2017-10-20T13:12:16.583Z,16.62
2017-10-20T13:14:44.072Z,16.61
2017-10-20T13:17:11.569Z,16.61
2017-10-20T13:19:39.132Z,16.62
2017-10-20T13:22:06.660Z,16.65
2017-10-20T13:24:34.169Z,16.70
2017-10-20T13:27:01.682Z,16.76
2017-10-20T13:29:29.306Z,16.81
2017-10-20T13:31:56.863Z,16.86
2017-10-20T13:34:24.357Z,16.88
2017-10-20T13:36:51.851Z,16.93
2017-10-20T13:39:19.379Z,16.96
2017-10-20T13:41:46.869Z,16.98
2017-10-20T13:44:14.398Z,16.98
2017-10-20T13:46:41.891Z,16.97
2017-10-20T13:49:09.379Z,16.95
2017-10-20T13:51:37.108Z,16.93
2017-10-20T13:54:04.597Z,16.95
2017-10-20T13:56:32.111Z,16.95
2017-10-20T13:58:59.635Z,16.94
2017-10-20T14:01:27.130Z,16.95
2017-10-20T14:03:54.627Z,16.95
2017-10-20T14:06:22.148Z,16.94
2017-10-20T14:08:49.640Z,16.93
2017-10-20T14:11:17.128Z,16.94
2017-10-20T14:13:44.671Z,16.91
2017-10-20T14:16:12.199Z,16.91
2017-10-20T14:18:39.757Z,16.90
2017-10-20T14:21:07.331Z,16.86
2017-10-20T14:23:34.816Z,16.87
2017-10-20T14:26:02.307Z,16.88
2017-10-20T14:28:29.832Z,16.86
2017-10-20T14:30:57.343Z,16.85
2017-10-20T14:33:24.899Z,16.84
2017-10-20T14:35:52.387Z,16.80
2017-10-20T14:38:19.877Z,16.79
2017-10-20T14:40:47.407Z,16.76
2017-10-20T14:43:14.959Z,16.72
2017-10-20T14:45:42.448Z,16.68
2017-10-20T14:48:09.972Z,16.63
2017-10-20T14:50:37.462Z,16.58
2017-10-20T14:53:04.960Z,16.47
2017-10-20T14:55:32.530Z,16.36
2017-10-20T14:58:00.096Z,16.30
2017-10-20T15:00:27.647Z,16.23
2017-10-20T15:02:55.311Z,16.17
2017-10-20T15:05:22.863Z,16.12
2017-10-20T15:07:50.359Z,16.12
2017-10-20T15:10:17.918Z,16.16
2017-10-20T15:12:45.443Z,16.21
2017-10-20T15:15:13.004Z,16.22
2017-10-20T15:17:40.685Z,16.25
2017-10-20T15:20:08.202Z,16.26
2017-10-20T15:22:35.695Z,16.26
2017-10-20T15:25:03.231Z,16.24
2017-10-20T15:27:30.725Z,16.25
2017-10-20T15:29:58.219Z,16.24
2017-10-20T15:32:25.738Z,16.20
2017-10-20T15:34:53.227Z,16.16
2017-10-20T15:37:20.757Z,16.13
2017-10-20T15:39:48.263Z,16.09
2017-10-20T15:42:15.754Z,16.07
2017-10-20T15:44:43.280Z,16.04
2017-10-20T15:47:10.784Z,16.00
2017-10-20T15:49:38.285Z,15.96
2017-10-20T15:52:05.832Z,15.93
2017-10-20T15:54:33.324Z,15.91
2017-10-20T15:57:00.820Z,15.88
2017-10-20T15:59:28.557Z,15.84
2017-10-20T16:01:56.058Z,15.80
2017-10-20T16:04:23.552Z,15.76
2017-10-20T16:06:51.097Z,15.74
2017-10-20T16:09:18.596Z,15.73
2017-10-20T16:11:46.092Z,15.71
2017-10-20T16:14:13.629Z,15.70
2017-10-20T16:16:41.118Z,15.68
2017-10-20T16:19:08.623Z,15.66
2017-10-20T16:21:36.143Z,15.68
2017-10-20T16:24:03.635Z,15.68
2017-10-20T16:26:31.123Z,15.65
2017-10-20T16:28:58.757Z,15.63
2017-10-20T16:31:26.318Z,15.58
2017-10-20T16:33:53.811Z,15.52
2017-10-20T16:36:21.443Z,15.48
2017-10-20T16:38:48.944Z,15.42
2017-10-20T16:41:16.437Z,15.34
2017-10-20T16:43:44.017Z,15.24
2017-10-20T16:46:11.512Z,15.15
2017-10-20T16:48:39.036Z,15.10
2017-10-20T16:51:06.537Z,15.11
2017-10-20T16:53:34.075Z,15.13
2017-10-20T16:56:01.603Z,15.16
2017-10-20T16:58:29.171Z,15.19
2017-10-20T17:00:56.731Z,15.24
2017-10-20T17:03:24.244Z,15.32
2017-10-20T17:05:51.736Z,15.40
2017-10-20T17:08:19.303Z,15.50
2017-10-20T17:10:46.791Z,15.52
2017-10-20T17:13:14.344Z,15.56
2017-10-20T17:15:41.865Z,15.62
2017-10-20T17:18:09.357Z,15.63
2017-10-20T17:20:36.880Z,15.59
2017-10-20T17:23:04.373Z,15.55
2017-10-20T17:25:31.933Z,15.51
2017-10-20T17:27:59.479Z,15.52
2017-10-20T17:30:26.971Z,15.48
2017-10-20T17:32:54.484Z,15.46
2017-10-20T17:35:22.020Z,15.44
2017-10-20T17:37:49.507Z,15.43
2017-10-20T17:40:17.008Z,15.42
2017-10-20T17:42:44.535Z,15.42
2017-10-20T17:45:12.078Z,15.44
2017-10-20T17:47:39.564Z,15.46
2017-10-20T17:50:07.099Z,15.45
2017-10-20T17:52:34.592Z,15.47
2017-10-20T17:55:02.090Z,15.49
2017-10-20T17:57:29.635Z,15.45
2017-10-20T17:59:57.232Z,15.43
2017-10-20T18:02:24.810Z,15.38
2017-10-20T18:04:52.332Z,15.34
2017-10-20T18:07:19.932Z,15.32
2017-10-20T18:09:47.429Z,15.32
2017-10-20T18:12:15.059Z,15.32
2017-10-20T18:14:42.548Z,15.34
2017-10-20T18:17:10.040Z,15.31
2017-10-20T18:19:37.576Z,15.22
2017-10-20T18:22:05.169Z,15.13
2017-10-20T18:24:32.664Z,15.00
2017-10-20T18:27:00.209Z,14.92
2017-10-20T18:29:27.700Z,14.80
2017-10-20T18:31:55.188Z,14.69
2017-10-20T18:34:22.714Z,14.66
2017-10-20T18:36:50.202Z,14.57
2017-10-20T18:39:17.703Z,14.52
2017-10-20T18:41:45.339Z,14.50
2017-10-20T18:44:12.897Z,14.50
2017-10-20T18:46:40.418Z,14.51
2017-10-20T18:49:07.960Z,14.39
2017-10-20T18:51:35.454Z,14.30
2017-10-20T18:54:02.948Z,14.28
2017-10-20T18:56:30.607Z,14.25
2017-10-20T18:58:58.151Z,14.20
2017-10-20T19:01:25.645Z,14.25
2017-10-20T19:03:53.178Z,14.31
2017-10-20T19:06:20.725Z,14.39
2017-10-20T19:08:48.215Z,14.39
2017-10-20T19:11:15.860Z,14.46
2017-10-20T19:13:43.401Z,14.49
2017-10-20T19:16:11.060Z,14.57
2017-10-20T19:18:38.600Z,14.62
2017-10-20T19:21:06.245Z,14.59
2017-10-20T19:23:33.736Z,14.54
2017-10-20T19:26:01.266Z,14.41
2017-10-20T19:28:28.773Z,14.29
2017-10-20T19:30:56.282Z,14.17
2017-10-20T19:33:23.820Z,14.14
2017-10-20T19:35:51.311Z,14.07
2017-10-20T19:38:18.801Z,14.02
2017-10-20T19:40:46.331Z,13.97
2017-10-20T19:43:13.836Z,13.97
2017-10-20T19:45:41.336Z,14.01
2017-10-20T19:48:08.918Z,14.02
2017-10-20T19:50:36.502Z,14.00
2017-10-20T19:53:04.003Z,14.15
2017-10-20T19:55:31.630Z,14.10
2017-10-20T19:57:59.161Z,14.06
2017-10-20T20:00:26.656Z,14.00
2017-10-20T20:02:54.383Z,14.02
2017-10-20T20:05:21.876Z,14.09
2017-10-20T20:07:49.375Z,14.10
2017-10-20T20:10:16.924Z,14.07
2017-10-20T20:12:44.515Z,14.09
2017-10-20T20:15:12.012Z,14.09
2017-10-20T20:17:39.657Z,14.11
2017-10-20T20:20:07.147Z,14.10
2017-10-20T20:22:34.636Z,14.07
2017-10-20T20:25:02.184Z,14.06
2017-10-20T20:27:29.704Z,14.02
2017-10-20T20:29:57.215Z,14.04
2017-10-20T20:32:24.750Z,14.05
2017-10-20T20:34:52.240Z,14.04
2017-10-20T20:37:19.741Z,14.03
2017-10-20T20:39:47.277Z,14.05
2017-10-20T20:42:14.820Z,14.10
2017-10-20T20:44:42.332Z,14.10
2017-10-20T20:47:09.871Z,14.06
2017-10-20T20:49:37.377Z,13.99
2017-10-20T20:52:04.864Z,13.89
2017-10-20T20:54:32.507Z,13.83
2017-10-20T20:57:00.023Z,13.76
2017-10-20T20:59:27.512Z,13.71
2017-10-20T21:01:55.027Z,13.66
2017-10-20T21:04:22.563Z,13.58
2017-10-20T21:06:50.115Z,13.47
2017-10-20T21:09:17.608Z,13.46
2017-10-20T21:11:45.120Z,13.44
2017-10-20T21:14:12.699Z,13.48
2017-10-20T21:16:40.236Z,13.46
2017-10-20T21:19:07.802Z,13.37
2017-10-20T21:21:35.327Z,13.30
2017-10-20T21:24:02.819Z,13.24
2017-10-20T21:26:30.371Z,13.18
2017-10-20T21:28:57.916Z,13.09
2017-10-20T21:31:25.416Z,13.01
2017-10-20T21:33:52.943Z,12.91
2017-10-20T21:36:20.611Z,12.85
2017-10-20T21:38:48.120Z,12.80
2017-10-20T21:41:15.632Z,12.73
2017-10-20T21:43:43.178Z,12.66
2017-10-20T21:46:10.747Z,12.60
2017-10-20T21:48:38.239Z,12.57
2017-10-20T21:51:05.763Z,12.53
2017-10-20T21:53:33.260Z,12.52
2017-10-20T21:56:00.756Z,12.47
2017-10-20T21:58:28.289Z,12.41
2017-10-20T22:00:55.792Z,12.38
2017-10-20T22:03:23.287Z,12.36
2017-10-20T22:05:50.805Z,12.32
2017-10-20T22:08:18.340Z,12.32
2017-10-20T22:10:45.924Z,12.46
2017-10-20T22:13:13.416Z,12.49
2017-10-20T22:15:40.964Z,12.52
2017-10-20T22:18:08.453Z,12.59
2017-10-20T22:20:35.964Z,12.61
2017-10-20T22:23:03.515Z,12.65
2017-10-20T22:25:31.100Z,12.69
2017-10-20T22:27:58.609Z,12.73
2017-10-20T22:30:26.104Z,12.79
2017-10-20T22:32:53.660Z,12.88
2017-10-20T22:35:21.162Z,12.90
2017-10-20T22:37:48.672Z,12.88
2017-10-20T22:40:16.198Z,12.84
2017-10-20T22:42:43.699Z,12.77
2017-10-20T22:45:11.189Z,12.78
2017-10-20T22:47:38.708Z,12.73
2017-10-20T22:50:06.204Z,12.66
2017-10-20T22:52:33.932Z,12.57
2017-10-20T22:55:01.423Z,12.53
2017-10-20T22:57:28.916Z,12.50
2017-10-20T22:59:56.515Z,12.49
2017-10-20T23:02:24.055Z,12.58
2017-10-20T23:04:51.545Z,12.67
2017-10-20T23:07:19.072Z,12.70
2017-10-20T23:09:46.635Z,12.69
2017-10-20T23:12:14.144Z,12.69
2017-10-20T23:14:41.689Z,12.57
2017-10-20T23:17:09.198Z,12.43
2017-10-20T23:19:36.687Z,12.35
2017-10-20T23:22:04.203Z,12.29
2017-10-20T23:24:31.699Z,12.23
2017-10-20T23:26:59.191Z,12.16
2017-10-20T23:29:26.818Z,12.12
2017-10-20T23:31:54.315Z,12.07
2017-10-20T23:34:21.853Z,12.04
2017-10-20T23:36:49.343Z,11.99
2017-10-20T23:39:16.839Z,11.98
2017-10-20T23:41:44.491Z,11.97
2017-10-20T23:44:12.055Z,11.99
2017-10-20T23:46:39.544Z,12.00
2017-10-20T23:49:07.298Z,11.98
2017-10-20T23:51:34.797Z,12.02
2017-10-20T23:54:02.296Z,12.06
2017-10-20T23:56:29.827Z,12.05
2017-10-20T23:58:57.410Z,12.07
